CheckWX is a tool to help pilots better visualize weather data.  It is not intended as a substitute for an official pre-flight weather briefing.

04:37:17 UTC

CYFT METAR
Makkovik Airport
Makkovik, Canada
Current

9 hours ago

CYFT 262000Z 04008KT 15SM SCT220 07/05 A3015 RMK CI3 LAST STFD OBS/NEXT 270900 UTC SLP213
Observed
Jun-26 @ 20:00 UTC
Wind
  • 040° at 8 KTS
Visibility
15 SM
Flight Rules
VFR
Cloud Levels
  • Scattered at 22,000' AGL
Temperature
C / 45°F
Dewpoint
C / 41°F
Humidity
87%
Altimeter
30.15" Hg
Pressure
1021.02 hPa
Previous

10 hours ago

CYFT 261900Z 03007KT 15SM FEW020 SCT220 09/06 A3014 RMK SC1CI3 SC TR SLP211
Observed
Jun-26 @ 19:00 UTC
Wind
  • 030° at 7 KTS
Visibility
15 SM
Flight Rules
VFR
Cloud Levels
  • Few at 2,000' AGL
  • Scattered at 22,000' AGL
Temperature
C / 48°F
Dewpoint
C / 43°F
Humidity
82%
Altimeter
30.14" Hg
Pressure
1020.62 hPa
Previous

11 hours ago

CYFT 261800Z 35006KT 310V030 15SM FEW020 FEW140 SCT220 09/05 A3014 RMK SC1AC1CI2 SLP211
Observed
Jun-26 @ 18:00 UTC
Wind
  • 350° at 6 KTS
Visibility
15 SM
Flight Rules
VFR
Cloud Levels
  • Few at 2,000' AGL
  • Few at 14,000' AGL
  • Scattered at 22,000' AGL
Temperature
C / 48°F
Dewpoint
C / 41°F
Humidity
76%
Altimeter
30.14" Hg
Pressure
1020.62 hPa